Time;durP1;ratioP1;P1;durP2;ratioP2;P2;SDS_P1;SDS_P2;PMS_P1;PMS_P2;Temp;Humidity;BMP_temperature;BMP_pressure;BME280_temperature;BME280_humidity;BME280_pressure;Samples;Min_cycle;Max_cycle;Signal;HPM_P1;HPM_P2
2022/08/23 00:00:43;;;;;;;;;;;21.80;51.90;;;;;;5127130;27;20345;-61
2022/08/23 00:03:10;;;;;;;;;;;21.70;52.00;;;;;;5131390;27;19959;-59
2022/08/23 00:05:37;;;;;;;;;;;21.70;52.10;;;;;;5129327;27;19923;-62
2022/08/23 00:08:05;;;;;;;;;;;21.70;52.20;;;;;;5133200;27;19919;-61
2022/08/23 00:10:32;;;;;;;;;;;21.70;52.40;;;;;;5132182;27;19919;-61
2022/08/23 00:13:00;;;;;;;;;;;21.70;52.30;;;;;;5129571;27;19961;-61
2022/08/23 00:15:27;;;;;;;;;;;21.70;52.30;;;;;;5129060;27;19964;-62
2022/08/23 00:17:55;;;;;;;;;;;21.70;52.50;;;;;;5131906;27;20017;-61
2022/08/23 00:20:22;;;;;;;;;;;21.60;52.60;;;;;;5132838;27;20014;-62
2022/08/23 00:22:49;;;;;;;;;;;21.60;52.70;;;;;;5130855;27;20012;-60
2022/08/23 00:25:16;;;;;;;;;;;21.60;52.60;;;;;;5132683;27;20279;-60
2022/08/23 00:27:44;;;;;;;;;;;21.70;52.70;;;;;;5123053;27;19920;-62
2022/08/23 00:30:12;;;;;;;;;;;21.60;53.00;;;;;;5126990;27;20010;-61
2022/08/23 00:32:40;;;;;;;;;;;21.60;53.10;;;;;;5128346;27;19926;-61
2022/08/23 00:35:09;;;;;;;;;;;21.60;53.30;;;;;;5132514;27;19919;-61
2022/08/23 00:37:37;;;;;;;;;;;21.60;53.40;;;;;;5124093;27;19927;-62
2022/08/23 00:40:04;;;;;;;;;;;21.60;53.60;;;;;;5125847;27;19919;-62
2022/08/23 00:48:20;;;;;;;;;;;21.60;53.50;;;;;;5100669;27;19933;-62
2022/08/23 00:50:51;;;;;;;;;;;21.60;53.70;;;;;;5119620;27;19955;-61
2022/08/23 00:53:19;;;;;;;;;;;21.60;53.60;;;;;;5129272;27;19919;-62
2022/08/23 00:55:47;;;;;;;;;;;21.60;53.50;;;;;;5131857;27;19965;-60
2022/08/23 00:58:17;;;;;;;;;;;21.60;53.50;;;;;;5128834;27;19919;-63
2022/08/23 01:00:44;;;;;;;;;;;21.50;53.60;;;;;;5126962;27;20605;-62
2022/08/23 01:03:11;;;;;;;;;;;21.50;53.60;;;;;;5130458;27;19919;-61
2022/08/23 01:05:44;;;;;;;;;;;21.50;53.60;;;;;;5130041;27;20403;-61
2022/08/23 01:08:13;;;;;;;;;;;21.50;53.60;;;;;;5120259;27;20389;-62
2022/08/23 01:10:41;;;;;;;;;;;21.50;53.60;;;;;;5131957;27;20077;-62
2022/08/23 01:13:11;;;;;;;;;;;21.50;53.60;;;;;;5128479;27;20347;-61
2022/08/23 01:15:41;;;;;;;;;;;21.40;53.80;;;;;;5130658;27;19927;-62
2022/08/23 01:18:10;;;;;;;;;;;21.40;53.90;;;;;;5127477;27;19972;-61
2022/08/23 01:20:41;;;;;;;;;;;21.40;53.90;;;;;;5132187;27;20006;-61
2022/08/23 01:23:09;;;;;;;;;;;21.40;54.00;;;;;;5129192;27;19927;-62
2022/08/23 01:25:38;;;;;;;;;;;21.30;54.20;;;;;;5127290;27;19920;-62
2022/08/23 01:28:05;;;;;;;;;;;21.30;54.20;;;;;;5145034;27;19926;-62
2022/08/23 01:30:33;;;;;;;;;;;21.30;54.30;;;;;;5122791;28;19969;-62
2022/08/23 01:33:01;;;;;;;;;;;21.20;54.50;;;;;;5127552;27;19958;-62
2022/08/23 01:35:31;;;;;;;;;;;21.20;54.50;;;;;;5130324;27;20276;-61
2022/08/23 01:37:58;;;;;;;;;;;21.10;54.60;;;;;;5128988;27;20639;-62
2022/08/23 01:40:26;;;;;;;;;;;21.10;54.60;;;;;;5127851;27;20273;-62
2022/08/23 01:42:54;;;;;;;;;;;21.10;54.60;;;;;;5138393;27;19923;-62
2022/08/23 01:45:21;;;;;;;;;;;21.10;54.80;;;;;;5129961;27;19927;-62
2022/08/23 01:47:49;;;;;;;;;;;21.10;55.00;;;;;;5130371;27;19927;-62
2022/08/23 01:50:16;;;;;;;;;;;20.90;55.40;;;;;;5128541;27;20292;-62
2022/08/23 01:52:43;;;;;;;;;;;20.90;55.70;;;;;;5125053;27;20026;-61
2022/08/23 01:55:11;;;;;;;;;;;20.90;56.00;;;;;;5126643;27;20381;-62
2022/08/23 01:57:40;;;;;;;;;;;20.80;56.00;;;;;;5127919;27;19919;-62
2022/08/23 02:00:10;;;;;;;;;;;20.80;56.00;;;;;;5123231;27;19927;-61
2022/08/23 02:02:40;;;;;;;;;;;20.80;56.20;;;;;;5131311;28;19970;-61
2022/08/23 02:05:08;;;;;;;;;;;20.70;56.40;;;;;;5130338;27;19919;-61
2022/08/23 02:07:35;;;;;;;;;;;20.60;56.60;;;;;;5129889;27;19919;-61
2022/08/23 02:10:02;;;;;;;;;;;20.60;57.10;;;;;;5123880;27;19943;-61
2022/08/23 02:12:29;;;;;;;;;;;20.50;57.40;;;;;;5126311;28;19923;-62
2022/08/23 02:15:06;;;;;;;;;;;20.50;57.50;;;;;;5130089;27;20414;-61
2022/08/23 02:17:35;;;;;;;;;;;20.40;57.80;;;;;;5129636;27;19925;-61
2022/08/23 02:20:04;;;;;;;;;;;20.40;57.90;;;;;;5128773;27;20428;-63
2022/08/23 02:22:31;;;;;;;;;;;20.40;57.90;;;;;;5134075;27;19923;-61
2022/08/23 02:24:57;;;;;;;;;;;20.30;58.20;;;;;;5128024;27;19920;-61
2022/08/23 02:27:24;;;;;;;;;;;20.30;58.40;;;;;;5123015;27;20365;-61
2022/08/23 02:29:51;;;;;;;;;;;20.20;58.60;;;;;;5132540;27;19934;-62
2022/08/23 02:32:19;;;;;;;;;;;20.20;58.60;;;;;;5126792;27;19996;-62
2022/08/23 02:34:48;;;;;;;;;;;20.20;58.60;;;;;;5131150;27;20021;-61
2022/08/23 02:37:15;;;;;;;;;;;20.20;58.60;;;;;;5125109;27;19972;-61
2022/08/23 02:39:43;;;;;;;;;;;20.10;58.90;;;;;;5132174;27;19968;-60
2022/08/23 02:42:11;;;;;;;;;;;20.10;59.10;;;;;;5130281;27;20406;-61
2022/08/23 02:44:40;;;;;;;;;;;20.10;59.30;;;;;;5131325;27;19923;-61
2022/08/23 02:47:07;;;;;;;;;;;20.00;59.40;;;;;;5134545;27;19919;-62
2022/08/23 02:49:37;;;;;;;;;;;20.00;59.40;;;;;;5133592;27;19920;-62
2022/08/23 02:52:06;;;;;;;;;;;20.00;59.40;;;;;;5133194;27;20403;-62
2022/08/23 02:54:33;;;;;;;;;;;19.90;59.50;;;;;;5131108;27;19923;-62
2022/08/23 02:56:59;;;;;;;;;;;19.90;59.80;;;;;;5132977;27;20377;-62
2022/08/23 02:59:26;;;;;;;;;;;19.90;59.80;;;;;;5133418;27;19919;-62
2022/08/23 03:01:53;;;;;;;;;;;19.90;59.90;;;;;;5134284;27;19959;-60
2022/08/23 03:04:27;;;;;;;;;;;19.80;60.00;;;;;;5131849;27;19923;-61
2022/08/23 03:06:54;;;;;;;;;;;19.80;60.00;;;;;;5132191;27;19963;-60
2022/08/23 03:09:22;;;;;;;;;;;19.80;60.10;;;;;;5131055;27;19923;-61
2022/08/23 03:11:49;;;;;;;;;;;19.80;60.10;;;;;;5131695;27;19923;-61
2022/08/23 03:14:17;;;;;;;;;;;19.80;60.10;;;;;;5131092;27;19920;-60
2022/08/23 03:16:44;;;;;;;;;;;19.70;60.30;;;;;;5132646;27;19923;-61
2022/08/23 03:19:12;;;;;;;;;;;19.70;60.40;;;;;;5132774;27;19980;-61
2022/08/23 03:21:39;;;;;;;;;;;19.60;60.50;;;;;;5132899;27;20372;-62
2022/08/23 03:24:06;;;;;;;;;;;19.60;60.80;;;;;;5132303;27;20404;-61
2022/08/23 03:26:34;;;;;;;;;;;19.50;61.10;;;;;;5130441;27;20349;-62
2022/08/23 03:29:01;;;;;;;;;;;19.50;61.10;;;;;;5131777;27;19927;-61
2022/08/23 03:31:34;;;;;;;;;;;19.50;61.20;;;;;;5128522;27;19961;-60
2022/08/23 03:34:09;;;;;;;;;;;19.50;61.20;;;;;;5127778;27;19996;-61
2022/08/23 03:36:36;;;;;;;;;;;19.50;61.20;;;;;;5132875;27;19927;-60
2022/08/23 03:39:04;;;;;;;;;;;19.50;61.20;;;;;;5132439;27;19919;-61
2022/08/23 03:41:31;;;;;;;;;;;19.40;61.30;;;;;;5131561;27;20365;-61
2022/08/23 03:43:59;;;;;;;;;;;19.50;61.40;;;;;;5132010;27;20387;-62
2022/08/23 03:46:28;;;;;;;;;;;19.40;61.50;;;;;;5132444;27;20311;-61
2022/08/23 03:49:00;;;;;;;;;;;19.40;61.70;;;;;;5131723;27;19927;-60
2022/08/23 03:51:33;;;;;;;;;;;19.40;61.70;;;;;;5131544;27;19923;-61
2022/08/23 03:54:00;;;;;;;;;;;19.30;61.80;;;;;;5131601;27;19924;-61
2022/08/23 03:56:28;;;;;;;;;;;19.40;61.80;;;;;;5122697;27;20369;-60
2022/08/23 03:58:56;;;;;;;;;;;19.30;62.00;;;;;;5129202;27;19980;-60
2022/08/23 04:01:25;;;;;;;;;;;19.40;62.00;;;;;;5129055;27;20337;-61
2022/08/23 04:03:51;;;;;;;;;;;19.40;62.20;;;;;;5130458;27;19980;-60
2022/08/23 04:06:18;;;;;;;;;;;19.40;62.20;;;;;;5131932;27;19919;-61
2022/08/23 04:08:46;;;;;;;;;;;19.30;62.30;;;;;;5131526;27;19920;-61
2022/08/23 04:11:13;;;;;;;;;;;19.30;62.40;;;;;;5132185;27;20403;-61
2022/08/23 04:13:50;;;;;;;;;;;19.30;62.40;;;;;;5131002;27;19919;-63
2022/08/23 04:16:17;;;;;;;;;;;19.30;62.40;;;;;;5131477;27;19919;-62
2022/08/23 04:18:46;;;;;;;;;;;19.30;62.60;;;;;;5131142;27;20447;-60
2022/08/23 04:21:16;;;;;;;;;;;19.30;62.10;;;;;;5132492;27;19919;-61
2022/08/23 04:23:43;;;;;;;;;;;19.40;62.10;;;;;;5131764;27;19926;-61
2022/08/23 04:26:12;;;;;;;;;;;19.30;62.20;;;;;;5130739;27;19919;-61
2022/08/23 04:28:40;;;;;;;;;;;19.30;62.40;;;;;;5130113;27;19919;-60
2022/08/23 04:31:07;;;;;;;;;;;19.30;62.30;;;;;;5132141;27;19983;-61
2022/08/23 04:33:34;;;;;;;;;;;19.30;62.30;;;;;;5126664;27;19919;-60
2022/08/23 04:36:04;;;;;;;;;;;19.30;62.40;;;;;;5131617;27;19927;-63
2022/08/23 04:38:31;;;;;;;;;;;19.20;62.60;;;;;;5131730;27;20029;-62
2022/08/23 04:43:48;;;;;;;;;;;19.20;62.70;;;;;;5126126;27;20018;-61
2022/08/23 04:46:15;;;;;;;;;;;19.20;62.90;;;;;;5126001;27;19923;-60
2022/08/23 04:48:43;;;;;;;;;;;19.20;62.80;;;;;;5130493;27;19919;-61
2022/08/23 04:51:12;;;;;;;;;;;19.20;62.80;;;;;;5128846;27;19919;-61
2022/08/23 04:53:39;;;;;;;;;;;19.20;63.20;;;;;;5125260;27;20399;-61
2022/08/23 04:56:35;;;;;;;;;;;19.10;63.20;;;;;;5108774;27;19927;-60
2022/08/23 04:59:03;;;;;;;;;;;19.10;63.30;;;;;;5129478;27;20344;-60
2022/08/23 05:01:30;;;;;;;;;;;19.10;63.50;;;;;;5124171;27;19928;-61
2022/08/23 05:03:58;;;;;;;;;;;19.10;63.70;;;;;;5126106;27;20369;-61
2022/08/23 05:06:28;;;;;;;;;;;19.10;63.60;;;;;;5130918;27;20299;-61
2022/08/23 05:08:55;;;;;;;;;;;19.10;63.40;;;;;;5132290;27;19942;-61
2022/08/23 05:11:22;;;;;;;;;;;19.10;63.40;;;;;;5129811;27;20369;-61
2022/08/23 05:13:49;;;;;;;;;;;19.00;63.60;;;;;;5126836;27;19919;-60
2022/08/23 05:16:16;;;;;;;;;;;19.10;63.30;;;;;;5125313;27;20349;-63
2022/08/23 05:18:52;;;;;;;;;;;19.10;63.30;;;;;;5130375;27;20173;-61
2022/08/23 05:21:21;;;;;;;;;;;19.10;63.30;;;;;;5129666;27;19928;-61
2022/08/23 05:23:50;;;;;;;;;;;19.10;63.30;;;;;;5143814;27;19919;-61
2022/08/23 05:26:19;;;;;;;;;;;19.10;63.40;;;;;;5130386;27;20001;-61
2022/08/23 05:28:47;;;;;;;;;;;19.10;63.40;;;;;;5130049;27;19919;-61
2022/08/23 05:31:17;;;;;;;;;;;19.10;63.90;;;;;;5127461;27;19962;-62
2022/08/23 05:33:49;;;;;;;;;;;19.00;64.20;;;;;;5130083;27;19919;-61
2022/08/23 05:36:23;;;;;;;;;;;19.00;64.10;;;;;;5130412;27;19920;-61
2022/08/23 05:38:52;;;;;;;;;;;19.10;63.90;;;;;;5125330;27;19927;-62
2022/08/23 05:41:19;;;;;;;;;;;19.10;64.00;;;;;;5129776;27;19976;-61
2022/08/23 05:43:47;;;;;;;;;;;19.10;64.30;;;;;;5124000;28;19924;-62
2022/08/23 05:46:15;;;;;;;;;;;19.10;64.50;;;;;;5123192;28;20369;-60
2022/08/23 05:48:47;;;;;;;;;;;19.10;64.50;;;;;;5124218;27;19968;-61
2022/08/23 05:51:18;;;;;;;;;;;19.00;64.70;;;;;;5126502;27;19920;-60
2022/08/23 05:53:46;;;;;;;;;;;19.10;64.40;;;;;;5130977;27;20334;-61
2022/08/23 05:56:16;;;;;;;;;;;19.10;64.40;;;;;;5133480;27;19926;-61
2022/08/23 05:58:43;;;;;;;;;;;19.10;64.40;;;;;;5132924;27;19973;-62
2022/08/23 06:01:10;;;;;;;;;;;19.20;64.30;;;;;;5118804;27;19930;-61
2022/08/23 06:03:37;;;;;;;;;;;19.20;64.30;;;;;;5133894;27;19984;-62
2022/08/23 06:06:05;;;;;;;;;;;19.20;64.50;;;;;;5132597;27;20013;-61
2022/08/23 06:08:32;;;;;;;;;;;19.20;64.50;;;;;;5129110;27;19926;-61
2022/08/23 06:11:00;;;;;;;;;;;19.20;64.90;;;;;;5130819;27;19920;-61
2022/08/23 06:13:35;;;;;;;;;;;19.30;64.80;;;;;;5129634;27;20332;-60
2022/08/23 06:16:04;;;;;;;;;;;19.40;64.60;;;;;;5134094;27;19942;-62
2022/08/23 06:18:31;;;;;;;;;;;19.40;64.50;;;;;;5141477;27;20025;-62
2022/08/23 06:21:10;;;;;;;;;;;19.40;64.30;;;;;;5131406;27;19970;-61
2022/08/23 06:23:43;;;;;;;;;;;19.50;64.00;;;;;;5126606;27;19920;-61
2022/08/23 06:26:11;;;;;;;;;;;19.60;63.40;;;;;;5132006;27;19923;-61
2022/08/23 06:28:39;;;;;;;;;;;19.60;63.40;;;;;;5135835;27;19919;-61
2022/08/23 06:31:06;;;;;;;;;;;19.60;63.20;;;;;;5124874;27;19920;-61
2022/08/23 06:33:36;;;;;;;;;;;19.70;63.10;;;;;;5131612;27;19923;-62
2022/08/23 06:36:22;;;;;;;;;;;19.80;62.70;;;;;;5134531;27;20015;-61
2022/08/23 06:39:05;;;;;;;;;;;19.90;62.50;;;;;;5132825;27;19942;-61
2022/08/23 06:42:07;;;;;;;;;;;20.00;62.70;;;;;;5120020;27;19919;-62
2022/08/23 06:44:42;;;;;;;;;;;20.10;62.60;;;;;;5147217;27;19951;-62
2022/08/23 06:47:18;;;;;;;;;;;20.20;62.20;;;;;;5132783;27;20226;-61
2022/08/23 06:49:45;;;;;;;;;;;20.30;62.00;;;;;;5134614;27;19936;-62
2022/08/23 06:52:12;;;;;;;;;;;20.40;61.90;;;;;;5131180;27;19980;-62
2022/08/23 06:55:09;;;;;;;;;;;20.50;61.80;;;;;;5116255;27;19925;-61
2022/08/23 06:57:52;;;;;;;;;;;20.60;61.60;;;;;;5132067;27;19919;-62
2022/08/23 07:00:39;;;;;;;;;;;20.70;61.50;;;;;;5131749;27;19926;-62
2022/08/23 07:03:26;;;;;;;;;;;20.90;61.00;;;;;;5127517;27;19919;-62
2022/08/23 07:06:11;;;;;;;;;;;21.00;60.80;;;;;;5132306;27;20011;-62
2022/08/23 07:08:38;;;;;;;;;;;21.10;60.60;;;;;;5130803;27;19919;-62
2022/08/23 07:11:05;;;;;;;;;;;21.20;60.50;;;;;;5130421;27;19920;-62
2022/08/23 07:13:32;;;;;;;;;;;21.30;60.40;;;;;;5133549;27;19919;-62
2022/08/23 07:16:01;;;;;;;;;;;21.50;60.10;;;;;;5128454;27;20420;-62
2022/08/23 07:18:31;;;;;;;;;;;21.60;59.40;;;;;;5130560;27;19923;-62
2022/08/23 07:20:59;;;;;;;;;;;21.70;59.50;;;;;;5124387;27;19926;-62
2022/08/23 07:23:26;;;;;;;;;;;21.90;59.00;;;;;;5134135;27;19923;-62
2022/08/23 07:25:53;;;;;;;;;;;22.00;58.40;;;;;;5129955;27;19972;-62
2022/08/23 07:28:23;;;;;;;;;;;22.10;58.70;;;;;;5126496;27;19920;-62
2022/08/23 07:30:50;;;;;;;;;;;22.20;58.20;;;;;;5130885;27;19923;-61
2022/08/23 07:33:18;;;;;;;;;;;22.30;58.10;;;;;;5129467;27;20392;-61
2022/08/23 07:36:06;;;;;;;;;;;22.40;57.10;;;;;;5129507;27;19942;-62
2022/08/23 07:38:34;;;;;;;;;;;22.60;57.60;;;;;;5124799;27;19919;-62
2022/08/23 07:41:02;;;;;;;;;;;22.70;56.80;;;;;;5128936;27;20396;-62
2022/08/23 07:43:32;;;;;;;;;;;22.80;56.90;;;;;;5123847;27;20377;-61
2022/08/23 07:45:59;;;;;;;;;;;22.90;56.10;;;;;;5131089;27;19942;-62
2022/08/23 07:48:28;;;;;;;;;;;23.00;56.00;;;;;;5130151;27;19920;-62
2022/08/23 07:51:11;;;;;;;;;;;23.10;55.70;;;;;;5124192;27;19919;-60
2022/08/23 07:53:37;;;;;;;;;;;23.40;55.10;;;;;;5129180;27;19987;-61
2022/08/23 07:56:05;;;;;;;;;;;23.60;54.40;;;;;;5132299;27;19919;-62
2022/08/23 07:58:51;;;;;;;;;;;23.60;54.40;;;;;;5133191;27;20056;-61
2022/08/23 08:01:47;;;;;;;;;;;23.80;53.20;;;;;;5102710;27;19920;-66
2022/08/23 08:04:16;;;;;;;;;;;24.00;53.10;;;;;;5125937;27;20022;-67
2022/08/23 08:06:46;;;;;;;;;;;24.10;52.60;;;;;;5127781;27;19923;-66
2022/08/23 08:09:15;;;;;;;;;;;24.20;52.50;;;;;;5127904;27;19927;-68
2022/08/23 08:11:43;;;;;;;;;;;24.40;51.60;;;;;;5127581;27;19934;-66
2022/08/23 08:14:11;;;;;;;;;;;24.40;51.60;;;;;;5130819;27;19975;-65
2022/08/23 08:16:48;;;;;;;;;;;24.60;50.70;;;;;;5130798;27;19923;-65
2022/08/23 08:19:22;;;;;;;;;;;24.70;50.40;;;;;;5140644;27;19925;-66
2022/08/23 08:22:08;;;;;;;;;;;24.80;50.10;;;;;;5128187;27;20386;-66
2022/08/23 08:25:00;;;;;;;;;;;24.90;49.80;;;;;;5104984;27;20378;-66
2022/08/23 08:27:29;;;;;;;;;;;25.00;50.00;;;;;;5131945;27;19968;-66
2022/08/23 08:29:56;;;;;;;;;;;25.10;49.70;;;;;;5127211;27;19926;-66
2022/08/23 08:32:23;;;;;;;;;;;25.20;49.20;;;;;;5124151;27;19923;-67
2022/08/23 08:34:51;;;;;;;;;;;25.30;49.40;;;;;;5123582;27;19924;-65
2022/08/23 08:37:19;;;;;;;;;;;25.40;49.00;;;;;;5127130;27;20070;-67
2022/08/23 08:39:45;;;;;;;;;;;25.40;48.60;;;;;;5131366;27;19923;-66
2022/08/23 08:42:22;;;;;;;;;;;25.50;48.50;;;;;;5131824;27;20346;-66
2022/08/23 08:44:52;;;;;;;;;;;25.60;48.20;;;;;;5131225;27;19945;-65
2022/08/23 08:47:27;;;;;;;;;;;25.70;47.90;;;;;;5128786;27;20380;-66
2022/08/23 08:49:57;;;;;;;;;;;25.80;47.60;;;;;;5127571;27;20014;-66
2022/08/23 08:52:26;;;;;;;;;;;25.90;46.80;;;;;;5131247;27;20273;-66
2022/08/23 08:55:00;;;;;;;;;;;26.10;46.80;;;;;;5117927;27;19965;-65
2022/08/23 08:57:26;;;;;;;;;;;26.10;47.00;;;;;;5132240;27;19966;-67
2022/08/23 08:59:56;;;;;;;;;;;26.20;46.70;;;;;;5132565;27;19923;-66
2022/08/23 09:02:26;;;;;;;;;;;26.30;46.70;;;;;;5120910;27;19946;-67
2022/08/23 09:04:52;;;;;;;;;;;26.40;46.20;;;;;;5128787;27;19969;-66
2022/08/23 09:07:28;;;;;;;;;;;26.50;46.00;;;;;;5131550;27;19923;-67
2022/08/23 09:10:08;;;;;;;;;;;26.60;44.80;;;;;;5130809;27;20472;-65
2022/08/23 09:12:43;;;;;;;;;;;26.60;44.40;;;;;;5123536;27;19919;-66
2022/08/23 09:15:18;;;;;;;;;;;26.80;44.70;;;;;;5124285;27;19926;-65
2022/08/23 09:17:50;;;;;;;;;;;26.90;44.00;;;;;;5123558;27;19984;-65
2022/08/23 09:20:21;;;;;;;;;;;27.00;43.90;;;;;;5129207;27;20014;-67
2022/08/23 09:22:56;;;;;;;;;;;27.10;43.10;;;;;;5121647;27;19927;-67
2022/08/23 09:25:29;;;;;;;;;;;27.20;42.50;;;;;;5126423;27;20012;-66
2022/08/23 09:28:04;;;;;;;;;;;27.30;43.00;;;;;;5128099;27;19950;-66
2022/08/23 09:30:48;;;;;;;;;;;27.40;42.80;;;;;;5130145;27;19927;-66
2022/08/23 09:33:16;;;;;;;;;;;27.50;42.40;;;;;;5115559;27;19960;-65
2022/08/23 09:35:44;;;;;;;;;;;27.60;41.40;;;;;;5126239;27;19927;-65
2022/08/23 09:38:19;;;;;;;;;;;27.60;41.00;;;;;;5129316;27;19926;-65
2022/08/23 09:40:50;;;;;;;;;;;27.60;41.10;;;;;;5125408;27;20439;-65
2022/08/23 09:43:19;;;;;;;;;;;27.70;41.20;;;;;;5130780;27;19968;-65
2022/08/23 09:45:55;;;;;;;;;;;27.80;41.00;;;;;;5131615;27;19931;-66
2022/08/23 09:48:32;;;;;;;;;;;27.90;40.60;;;;;;5128922;27;20014;-67
2022/08/23 09:51:05;;;;;;;;;;;28.00;40.40;;;;;;5124370;28;19919;-65
2022/08/23 09:53:35;;;;;;;;;;;28.10;40.50;;;;;;5128691;27;20461;-65
2022/08/23 09:56:10;;;;;;;;;;;28.10;40.40;;;;;;5123916;28;19919;-66
2022/08/23 09:58:40;;;;;;;;;;;28.20;40.00;;;;;;5121914;27;19926;-67
2022/08/23 10:01:12;;;;;;;;;;;28.30;40.10;;;;;;5121788;27;19920;-66
2022/08/23 10:03:40;;;;;;;;;;;28.40;39.70;;;;;;5129013;27;19919;-67
2022/08/23 10:06:30;;;;;;;;;;;28.50;39.70;;;;;;5128857;27;19919;-67
2022/08/23 10:09:04;;;;;;;;;;;28.60;39.80;;;;;;5124251;27;19920;-66
2022/08/23 10:11:36;;;;;;;;;;;28.60;39.70;;;;;;5130069;27;19926;-67
2022/08/23 10:14:03;;;;;;;;;;;28.60;39.70;;;;;;5122521;27;19919;-67
2022/08/23 10:16:36;;;;;;;;;;;28.70;39.70;;;;;;5130379;27;19920;-67
2022/08/23 10:19:14;;;;;;;;;;;28.80;39.30;;;;;;5127219;27;20325;-67
2022/08/23 10:21:46;;;;;;;;;;;28.90;38.70;;;;;;5129635;27;19924;-66
2022/08/23 10:24:17;;;;;;;;;;;28.90;38.50;;;;;;5129991;27;19923;-67
2022/08/23 10:26:51;;;;;;;;;;;29.00;38.20;;;;;;5118775;27;19924;-66
2022/08/23 10:29:37;;;;;;;;;;;29.10;37.80;;;;;;5122835;28;20328;-66
2022/08/23 10:32:12;;;;;;;;;;;29.20;38.20;;;;;;5126916;27;19926;-65
2022/08/23 10:34:54;;;;;;;;;;;29.30;38.00;;;;;;5127071;27;19923;-66
2022/08/23 10:37:31;;;;;;;;;;;29.30;37.40;;;;;;5129552;27;20372;-66
2022/08/23 10:40:02;;;;;;;;;;;29.40;37.70;;;;;;5132586;27;19926;-67
2022/08/23 10:42:35;;;;;;;;;;;29.40;37.70;;;;;;5132634;27;19928;-66
2022/08/23 10:45:09;;;;;;;;;;;29.50;37.60;;;;;;5117363;27;20410;-66
2022/08/23 10:47:38;;;;;;;;;;;29.50;37.70;;;;;;5124504;27;19943;-65
2022/08/23 10:50:11;;;;;;;;;;;29.60;37.70;;;;;;5131794;27;20023;-67
2022/08/23 10:52:40;;;;;;;;;;;29.60;37.30;;;;;;5128865;27;20050;-66
2022/08/23 10:55:34;;;;;;;;;;;29.60;37.20;;;;;;5130838;27;19919;-66
2022/08/23 10:58:03;;;;;;;;;;;29.60;36.50;;;;;;5125290;27;20377;-66
2022/08/23 11:00:30;;;;;;;;;;;29.70;37.00;;;;;;5130721;27;19926;-66
2022/08/23 11:02:59;;;;;;;;;;;29.70;37.10;;;;;;5125084;27;20016;-66
2022/08/23 11:05:34;;;;;;;;;;;29.70;36.40;;;;;;5128508;27;20018;-67
2022/08/23 11:08:09;;;;;;;;;;;29.80;35.90;;;;;;5132968;27;19960;-66
2022/08/23 11:10:46;;;;;;;;;;;29.90;35.80;;;;;;5129165;27;19919;-66
2022/08/23 11:13:22;;;;;;;;;;;29.90;35.90;;;;;;5131169;27;19927;-65
2022/08/23 11:15:57;;;;;;;;;;;30.00;35.60;;;;;;5132867;27;19954;-65
2022/08/23 11:18:38;;;;;;;;;;;30.00;35.80;;;;;;5128200;27;19927;-66
2022/08/23 11:21:08;;;;;;;;;;;30.00;35.60;;;;;;5131541;27;20319;-66
2022/08/23 11:23:44;;;;;;;;;;;30.10;35.70;;;;;;5129655;27;20442;-66
2022/08/23 11:26:35;;;;;;;;;;;30.10;35.90;;;;;;5128752;27;19919;-66
2022/08/23 11:29:17;;;;;;;;;;;30.10;36.00;;;;;;5127532;27;20033;-66
2022/08/23 11:31:56;;;;;;;;;;;30.10;35.80;;;;;;5131072;27;19956;-66
2022/08/23 11:34:24;;;;;;;;;;;30.30;35.10;;;;;;5125632;27;19960;-66
2022/08/23 11:37:08;;;;;;;;;;;30.30;35.40;;;;;;5123846;27;20884;-67
2022/08/23 11:40:01;;;;;;;;;;;30.30;35.10;;;;;;5130915;27;19972;-66
2022/08/23 11:42:48;;;;;;;;;;;30.20;35.40;;;;;;5130814;27;20006;-66
2022/08/23 11:45:23;;;;;;;;;;;30.20;35.30;;;;;;5132404;27;19926;-65
2022/08/23 11:48:04;;;;;;;;;;;30.10;36.40;;;;;;5130239;27;19926;-67
2022/08/23 11:50:34;;;;;;;;;;;30.10;36.10;;;;;;5131691;27;19955;-66
2022/08/23 11:53:25;;;;;;;;;;;30.10;35.50;;;;;;5129252;27;19977;-66
2022/08/23 11:56:10;;;;;;;;;;;30.20;35.50;;;;;;5115880;27;20312;-67
2022/08/23 11:58:51;;;;;;;;;;;30.20;35.40;;;;;;5131427;27;19945;-66
2022/08/23 12:01:27;;;;;;;;;;;30.30;35.70;;;;;;5120097;27;20407;-66
2022/08/23 12:03:57;;;;;;;;;;;30.20;36.50;;;;;;5133471;27;19927;-66
2022/08/23 12:06:41;;;;;;;;;;;30.20;36.00;;;;;;5132640;27;19926;-66
2022/08/23 12:09:12;;;;;;;;;;;30.20;35.30;;;;;;5128356;27;19919;-66
2022/08/23 12:12:12;;;;;;;;;;;30.20;35.50;;;;;;5133713;27;19930;-66
2022/08/23 12:14:50;;;;;;;;;;;30.20;35.90;;;;;;5087277;28;19923;-65
2022/08/23 12:17:35;;;;;;;;;;;30.30;35.30;;;;;;5085092;28;19968;-66
2022/08/23 12:20:09;;;;;;;;;;;30.30;34.90;;;;;;5116062;27;19920;-65
2022/08/23 12:22:53;;;;;;;;;;;30.30;34.80;;;;;;5133324;27;19946;-66
2022/08/23 12:25:21;;;;;;;;;;;30.40;34.00;;;;;;5125723;27;20312;-65
2022/08/23 12:27:51;;;;;;;;;;;30.30;35.00;;;;;;5124189;27;19920;-66
2022/08/23 12:30:21;;;;;;;;;;;30.40;34.10;;;;;;5127974;27;20044;-65
2022/08/23 12:32:51;;;;;;;;;;;30.50;34.70;;;;;;5130280;27;19923;-66
2022/08/23 12:35:28;;;;;;;;;;;30.50;34.30;;;;;;5125464;27;19919;-67
2022/08/23 12:38:01;;;;;;;;;;;30.50;33.70;;;;;;5135787;27;19919;-64
2022/08/23 12:40:31;;;;;;;;;;;30.60;34.10;;;;;;5133027;27;20348;-66
2022/08/23 12:43:03;;;;;;;;;;;30.50;33.40;;;;;;5129399;27;20282;-65
2022/08/23 12:45:36;;;;;;;;;;;30.50;33.90;;;;;;5129630;27;20010;-66
2022/08/23 12:48:03;;;;;;;;;;;30.50;34.80;;;;;;5131773;27;19951;-66
2022/08/23 12:50:31;;;;;;;;;;;30.50;34.40;;;;;;5132166;27;19933;-65
2022/08/23 12:52:59;;;;;;;;;;;30.50;33.30;;;;;;5132791;27;19927;-64
2022/08/23 12:55:30;;;;;;;;;;;30.60;33.10;;;;;;5128399;27;19928;-65
2022/08/23 12:57:58;;;;;;;;;;;30.60;32.70;;;;;;5132422;27;19923;-66
2022/08/23 13:00:27;;;;;;;;;;;30.60;32.30;;;;;;5129167;27;19919;-66
2022/08/23 13:02:58;;;;;;;;;;;30.60;32.70;;;;;;5126439;27;19961;-65
2022/08/23 13:05:30;;;;;;;;;;;30.50;33.40;;;;;;5130812;27;19919;-65
2022/08/23 13:07:57;;;;;;;;;;;30.40;33.30;;;;;;5130228;27;20245;-66
2022/08/23 13:10:25;;;;;;;;;;;30.40;33.30;;;;;;5124962;27;19927;-66
2022/08/23 13:12:52;;;;;;;;;;;30.30;33.30;;;;;;5129706;27;19919;-65
2022/08/23 13:15:33;;;;;;;;;;;30.30;33.80;;;;;;5129126;27;20288;-65
2022/08/23 13:18:01;;;;;;;;;;;30.20;34.10;;;;;;5121061;27;19919;-64
2022/08/23 13:20:28;;;;;;;;;;;30.20;34.00;;;;;;5126003;27;19919;-65
2022/08/23 13:22:57;;;;;;;;;;;30.10;34.00;;;;;;5131448;27;19919;-66
2022/08/23 13:25:24;;;;;;;;;;;30.10;34.00;;;;;;5125967;27;19923;-66
2022/08/23 13:27:52;;;;;;;;;;;30.20;33.90;;;;;;5130304;27;19919;-65
2022/08/23 13:30:20;;;;;;;;;;;30.10;34.30;;;;;;5131506;27;19927;-64
2022/08/23 13:32:48;;;;;;;;;;;30.20;33.90;;;;;;5123095;27;19920;-65
2022/08/23 13:35:35;;;;;;;;;;;30.10;33.70;;;;;;5124759;27;19924;-65
2022/08/23 13:38:09;;;;;;;;;;;30.10;33.50;;;;;;5131001;27;20292;-64
2022/08/23 13:40:41;;;;;;;;;;;30.00;33.70;;;;;;5128995;27;19925;-64
2022/08/23 13:43:10;;;;;;;;;;;30.00;33.80;;;;;;5124091;27;19920;-64
2022/08/23 13:45:43;;;;;;;;;;;30.00;33.90;;;;;;5127871;27;20948;-65
2022/08/23 13:48:11;;;;;;;;;;;29.90;34.70;;;;;;5131938;27;19923;-65
2022/08/23 13:50:40;;;;;;;;;;;29.90;34.40;;;;;;5129185;27;19919;-65
2022/08/23 13:53:07;;;;;;;;;;;29.80;35.20;;;;;;5125945;27;19926;-66
2022/08/23 13:55:39;;;;;;;;;;;29.90;33.90;;;;;;5129944;27;19927;-64
2022/08/23 13:58:09;;;;;;;;;;;29.80;33.50;;;;;;5125281;27;19920;-64
2022/08/23 14:00:35;;;;;;;;;;;29.80;33.30;;;;;;5119374;27;20346;-65
2022/08/23 14:03:03;;;;;;;;;;;29.70;33.70;;;;;;5127195;27;19919;-65
2022/08/23 14:05:29;;;;;;;;;;;29.70;33.30;;;;;;5131079;27;20010;-65
2022/08/23 14:07:57;;;;;;;;;;;29.70;33.80;;;;;;5121752;27;19923;-66
2022/08/23 14:10:24;;;;;;;;;;;29.70;33.40;;;;;;5124143;27;19927;-64
2022/08/23 14:12:52;;;;;;;;;;;29.60;33.70;;;;;;5126087;28;19923;-64
2022/08/23 14:15:19;;;;;;;;;;;29.60;33.50;;;;;;5135084;27;19919;-66
2022/08/23 14:17:47;;;;;;;;;;;29.60;34.30;;;;;;5135602;27;19919;-65
2022/08/23 14:20:15;;;;;;;;;;;29.50;34.40;;;;;;5135328;27;19942;-65
2022/08/23 14:22:42;;;;;;;;;;;29.50;33.90;;;;;;5134618;27;19958;-64
2022/08/23 14:25:12;;;;;;;;;;;29.50;34.60;;;;;;5135049;27;20300;-65
2022/08/23 14:27:39;;;;;;;;;;;29.40;34.90;;;;;;5131267;27;19930;-64
2022/08/23 14:30:06;;;;;;;;;;;29.40;34.50;;;;;;5128676;27;20364;-64
2022/08/23 14:32:33;;;;;;;;;;;29.40;34.00;;;;;;5134518;27;19941;-65
2022/08/23 14:35:00;;;;;;;;;;;29.40;34.00;;;;;;5135452;27;19927;-64
2022/08/23 14:37:26;;;;;;;;;;;29.40;34.00;;;;;;5126529;27;19919;-65
2022/08/23 14:39:53;;;;;;;;;;;29.40;35.30;;;;;;5134885;27;19919;-65
2022/08/23 14:42:22;;;;;;;;;;;29.30;35.90;;;;;;5130343;27;20014;-64
2022/08/23 14:44:48;;;;;;;;;;;29.30;36.00;;;;;;5130116;27;19919;-66
2022/08/23 14:47:15;;;;;;;;;;;29.20;36.50;;;;;;5132439;27;20300;-65